createdAt,value
2017-11-29T00:00:05.050Z,99546.81
2017-11-29T00:01:10.784Z,99548.83
2017-11-29T00:02:16.879Z,99545.30
2017-11-29T00:03:23.014Z,99550.70
2017-11-29T00:04:28.921Z,99544.16
2017-11-29T00:05:35.900Z,99543.17
2017-11-29T00:06:42.080Z,99543.39
2017-11-29T00:07:48.204Z,99547.66
2017-11-29T00:08:54.362Z,99545.83
2017-11-29T00:10:00.505Z,99542.53
2017-11-29T00:11:06.394Z,99550.75
2017-11-29T00:12:12.182Z,99547.66
2017-11-29T00:13:18.335Z,99545.54
2017-11-29T00:14:24.466Z,99544.67
2017-11-29T00:15:34.208Z,99549.85
2017-11-29T00:16:40.071Z,99546.11
2017-11-29T00:17:46.241Z,99548.98
2017-11-29T00:18:52.199Z,99550.64
2017-11-29T00:20:03.317Z,99549.99
2017-11-29T00:21:09.532Z,99547.47
2017-11-29T00:22:15.301Z,99545.22
2017-11-29T00:23:21.182Z,99544.52
2017-11-29T00:24:27.812Z,99552.27
2017-11-29T00:25:35.312Z,99547.89
2017-11-29T00:26:41.444Z,99542.30
2017-11-29T00:27:47.223Z,99549.26
2017-11-29T00:28:53.346Z,99549.20
2017-11-29T00:29:59.523Z,99545.95
2017-11-29T00:31:05.391Z,99544.95
2017-11-29T00:32:11.645Z,99547.03
2017-11-29T00:33:17.405Z,99545.30
2017-11-29T00:34:23.512Z,99546.95
2017-11-29T00:35:29.275Z,99541.36
2017-11-29T00:36:35.076Z,99542.02
2017-11-29T00:37:40.525Z,99540.78
2017-11-29T00:38:46.018Z,99539.05
2017-11-29T00:39:51.186Z,99543.86
2017-11-29T00:40:57.008Z,99546.91
2017-11-29T00:42:02.987Z,99538.13
2017-11-29T00:43:09.444Z,99544.52
2017-11-29T00:44:15.540Z,99544.36
2017-11-29T00:45:21.634Z,99546.97
2017-11-29T00:46:27.395Z,99538.71
2017-11-29T00:47:33.533Z,99547.45
2017-11-29T00:48:39.321Z,99542.70
2017-11-29T00:49:45.419Z,99542.95
2017-11-29T00:50:51.535Z,99543.94
2017-11-29T00:51:57.306Z,99549.03
2017-11-29T00:53:03.445Z,99542.53
2017-11-29T00:54:09.662Z,99542.09
2017-11-29T00:55:15.759Z,99538.35
2017-11-29T00:56:21.527Z,99547.75
2017-11-29T00:57:27.273Z,99535.13
2017-11-29T00:58:33.222Z,99531.16
2017-11-29T00:59:39.201Z,99533.66
2017-11-29T01:00:45.122Z,99530.17
2017-11-29T01:01:50.868Z,99529.35
2017-11-29T01:02:56.800Z,99535.23
2017-11-29T01:04:02.896Z,99537.34
2017-11-29T01:05:08.813Z,99540.28
2017-11-29T01:06:14.957Z,99538.57
2017-11-29T01:07:21.109Z,99538.91
2017-11-29T01:08:27.292Z,99538.78
2017-11-29T01:09:33.455Z,99538.55
2017-11-29T01:10:39.757Z,99540.55
2017-11-29T01:11:45.875Z,99541.08
2017-11-29T01:12:52.070Z,99544.80
2017-11-29T01:14:01.074Z,99538.77
2017-11-29T01:15:08.971Z,99535.73
2017-11-29T01:16:15.124Z,99540.05
2017-11-29T01:17:21.288Z,99539.03
2017-11-29T01:18:27.392Z,99539.34
2017-11-29T01:19:33.513Z,99540.61
2017-11-29T01:20:39.606Z,99535.44
2017-11-29T01:21:45.489Z,99539.77
2017-11-29T01:22:51.571Z,99540.55
2017-11-29T01:23:57.656Z,99546.63
2017-11-29T01:25:03.774Z,99552.47
2017-11-29T01:26:09.887Z,99542.68
2017-11-29T01:27:16.003Z,99547.44
2017-11-29T01:28:22.165Z,99551.89
2017-11-29T01:29:28.408Z,99544.21
2017-11-29T01:30:34.508Z,99548.10
2017-11-29T01:31:40.623Z,99551.98
2017-11-29T01:32:46.739Z,99550.35
2017-11-29T01:33:52.935Z,99552.34
2017-11-29T01:34:59.050Z,99548.01
2017-11-29T01:36:06.905Z,99544.06
2017-11-29T01:37:13.042Z,99548.38
2017-11-29T01:38:19.446Z,99546.92
2017-11-29T01:39:25.608Z,99545.27
2017-11-29T01:40:31.734Z,99547.88
2017-11-29T01:41:37.906Z,99543.53
2017-11-29T01:42:44.061Z,99546.01
2017-11-29T01:43:49.988Z,99548.23
2017-11-29T01:44:56.087Z,99543.53
2017-11-29T01:46:02.064Z,99548.66
2017-11-29T01:47:09.913Z,99547.45
2017-11-29T01:48:15.645Z,99553.89
2017-11-29T01:49:21.238Z,99547.51
2017-11-29T01:50:27.347Z,99552.26
2017-11-29T01:51:33.330Z,99546.48
2017-11-29T01:52:39.073Z,99551.53
2017-11-29T01:53:44.974Z,99553.92
2017-11-29T01:54:50.897Z,99545.61
2017-11-29T01:56:00.284Z,99548.92
2017-11-29T01:57:06.417Z,99550.57
2017-11-29T01:58:12.518Z,99548.70
2017-11-29T01:59:18.627Z,99551.95
2017-11-29T02:00:23.891Z,99542.05
2017-11-29T02:01:28.747Z,99546.76
2017-11-29T02:02:34.515Z,99548.59
2017-11-29T02:03:40.120Z,99547.08
2017-11-29T02:04:46.216Z,99544.92
2017-11-29T02:05:51.613Z,99546.13
2017-11-29T02:06:57.565Z,99546.48
2017-11-29T02:08:03.742Z,99541.69
2017-11-29T02:09:09.540Z,99545.13
2017-11-29T02:10:16.368Z,99551.17
2017-11-29T02:11:26.748Z,99548.44
2017-11-29T02:12:32.891Z,99547.92
2017-11-29T02:13:39.010Z,99546.17
2017-11-29T02:14:45.076Z,99541.80
2017-11-29T02:15:51.160Z,99548.75
2017-11-29T02:16:57.021Z,99547.83
2017-11-29T02:18:03.166Z,99544.40
2017-11-29T02:19:08.548Z,99544.30
2017-11-29T02:20:13.923Z,99545.39
2017-11-29T02:21:19.633Z,99543.33
2017-11-29T02:22:25.079Z,99545.28
2017-11-29T02:23:30.296Z,99539.67
2017-11-29T02:24:35.733Z,99536.64
2017-11-29T02:25:41.167Z,99539.25
2017-11-29T02:26:46.368Z,99534.50
2017-11-29T02:27:51.604Z,99533.98
2017-11-29T02:28:56.901Z,99539.58
2017-11-29T02:30:02.093Z,99532.86
2017-11-29T02:31:07.525Z,99536.08
2017-11-29T02:32:12.739Z,99529.52
2017-11-29T02:33:18.291Z,99529.78
2017-11-29T02:34:23.746Z,99527.97
2017-11-29T02:35:28.953Z,99531.73
2017-11-29T02:36:40.092Z,99522.88
2017-11-29T02:37:45.360Z,99525.42
2017-11-29T02:38:51.585Z,99530.13
2017-11-29T02:40:18.172Z,99527.30
2017-11-29T02:52:19.833Z,99521.11
2017-11-29T02:53:25.010Z,99516.80
2017-11-29T02:54:30.358Z,99518.05
2017-11-29T02:55:39.549Z,99519.27
2017-11-29T02:56:44.730Z,99525.28
2017-11-29T02:57:50.323Z,99519.67
2017-11-29T02:58:55.560Z,99521.24
2017-11-29T03:00:01.040Z,99526.08
2017-11-29T03:01:06.310Z,99523.56
2017-11-29T03:02:11.867Z,99526.15
2017-11-29T03:03:17.755Z,99523.64
2017-11-29T03:04:23.829Z,99528.46
2017-11-29T03:05:29.936Z,99522.52
2017-11-29T03:06:35.675Z,99527.26
2017-11-29T03:07:41.760Z,99527.41
2017-11-29T03:08:47.552Z,99535.40
2017-11-29T03:09:53.516Z,99533.45
2017-11-29T03:10:59.624Z,99524.61
2017-11-29T03:12:06.051Z,99524.97
2017-11-29T03:13:12.213Z,99525.46
2017-11-29T03:14:18.292Z,99525.62
2017-11-29T03:15:24.430Z,99520.40
2017-11-29T03:16:30.536Z,99510.53
2017-11-29T03:17:36.675Z,99507.58
2017-11-29T03:18:42.799Z,99511.05
2017-11-29T03:19:48.725Z,99514.65
2017-11-29T03:20:54.881Z,99513.84
2017-11-29T03:22:00.947Z,99512.86
2017-11-29T03:23:07.024Z,99515.20
2017-11-29T03:24:13.102Z,99503.08
2017-11-29T03:25:19.183Z,99509.03
2017-11-29T03:26:25.307Z,99508.25
2017-11-29T03:27:31.228Z,99506.06
2017-11-29T03:28:37.336Z,99502.99
2017-11-29T03:29:43.486Z,99509.58
2017-11-29T03:30:49.578Z,99512.28
2017-11-29T03:31:55.719Z,99504.86
2017-11-29T03:33:01.918Z,99508.63
2017-11-29T03:34:08.605Z,99509.45
2017-11-29T03:35:14.691Z,99506.28
2017-11-29T03:36:20.797Z,99506.16
2017-11-29T03:37:26.978Z,99504.34
2017-11-29T03:38:33.159Z,99503.75
2017-11-29T03:39:39.308Z,99497.22
2017-11-29T03:40:49.603Z,99502.61
2017-11-29T03:41:55.766Z,99506.06
2017-11-29T03:43:01.916Z,99510.74
2017-11-29T03:44:08.234Z,99503.30
2017-11-29T03:45:14.465Z,99499.77
2017-11-29T03:46:20.596Z,99502.20
2017-11-29T03:47:26.702Z,99512.53
2017-11-29T03:48:32.787Z,99505.56
2017-11-29T03:49:38.926Z,99503.23
2017-11-29T03:50:45.052Z,99500.51
2017-11-29T03:51:51.031Z,99497.56
2017-11-29T03:52:57.235Z,99498.27
2017-11-29T03:54:09.251Z,99503.42
2017-11-29T03:55:15.336Z,99504.45
2017-11-29T03:56:21.431Z,99504.91
2017-11-29T03:57:27.526Z,99507.11
2017-11-29T03:58:33.653Z,99508.77
2017-11-29T03:59:39.771Z,99510.84
2017-11-29T04:00:45.854Z,99507.83
2017-11-29T04:01:52.160Z,99512.44
2017-11-29T04:02:58.604Z,99507.92
2017-11-29T04:04:04.726Z,99510.93
2017-11-29T04:05:10.825Z,99508.93
2017-11-29T04:06:16.926Z,99507.66
2017-11-29T04:07:23.081Z,99512.05
2017-11-29T04:08:28.888Z,99509.89
2017-11-29T04:09:34.400Z,99512.03
2017-11-29T04:10:39.896Z,99507.01
2017-11-29T04:11:48.042Z,99501.98
2017-11-29T04:12:53.336Z,99504.87
2017-11-29T04:13:58.818Z,99500.64
2017-11-29T04:15:04.582Z,99498.41
2017-11-29T04:16:10.196Z,99499.31
2017-11-29T04:17:15.949Z,99491.20
2017-11-29T04:18:21.375Z,99495.03
2017-11-29T04:19:27.219Z,99496.88
2017-11-29T04:20:32.635Z,99496.95
2017-11-29T04:21:38.106Z,99493.94
2017-11-29T04:22:43.329Z,99500.34
2017-11-29T04:23:49.066Z,99503.95
2017-11-29T04:24:55.188Z,99507.16
2017-11-29T04:26:00.959Z,99509.19
2017-11-29T04:27:06.568Z,99508.95
2017-11-29T04:28:12.376Z,99509.10
2017-11-29T04:29:18.141Z,99506.45
2017-11-29T04:30:23.753Z,99511.98
2017-11-29T04:31:29.663Z,99502.17
2017-11-29T04:32:35.815Z,99506.02
2017-11-29T04:33:41.950Z,99503.09
2017-11-29T04:34:48.085Z,99505.15
2017-11-29T04:35:54.226Z,99499.92
2017-11-29T04:37:00.190Z,99503.13
2017-11-29T04:38:06.291Z,99504.72
2017-11-29T04:39:12.444Z,99502.06
2017-11-29T04:40:18.571Z,99499.47
2017-11-29T04:41:24.779Z,99501.18
2017-11-29T04:42:30.974Z,99499.48
2017-11-29T04:43:36.890Z,99499.61
2017-11-29T04:44:42.710Z,99498.00
2017-11-29T04:45:48.819Z,99500.77
2017-11-29T04:46:54.900Z,99506.69
2017-11-29T04:48:01.058Z,99500.16
2017-11-29T04:49:06.469Z,99501.33
2017-11-29T04:50:12.245Z,99507.48
2017-11-29T04:51:17.974Z,99504.22
2017-11-29T04:52:23.240Z,99506.98
2017-11-29T04:53:29.399Z,99506.06
2017-11-29T04:54:35.173Z,99504.10
2017-11-29T04:55:40.576Z,99502.80
2017-11-29T04:56:46.353Z,99503.10
2017-11-29T04:57:55.471Z,99499.04
2017-11-29T04:59:00.491Z,99499.48
2017-11-29T05:00:06.005Z,99499.45
2017-11-29T05:01:11.102Z,99502.28
2017-11-29T05:02:16.850Z,99497.12
2017-11-29T05:03:22.674Z,99500.39
2017-11-29T05:04:28.945Z,99499.84
2017-11-29T05:05:34.425Z,99502.54
2017-11-29T05:06:39.469Z,99509.94
2017-11-29T05:07:44.985Z,99508.77
2017-11-29T05:08:50.797Z,99508.70
2017-11-29T05:09:56.288Z,99506.11
2017-11-29T05:11:01.824Z,99502.30
2017-11-29T05:12:07.242Z,99508.70
2017-11-29T05:13:14.721Z,99505.08
2017-11-29T05:14:21.671Z,99500.03
2017-11-29T05:15:27.369Z,99497.87
2017-11-29T05:16:33.093Z,99507.80
2017-11-29T05:17:38.552Z,99501.45
2017-11-29T05:18:44.669Z,99500.53
2017-11-29T05:19:50.373Z,99502.38
2017-11-29T05:20:57.113Z,99505.05
2017-11-29T05:22:02.887Z,99513.77
2017-11-29T05:23:08.380Z,99510.98
2017-11-29T05:24:13.808Z,99504.91
2017-11-29T05:25:19.233Z,99515.66
2017-11-29T05:26:24.819Z,99508.82
2017-11-29T05:27:30.306Z,99513.58
2017-11-29T05:28:35.805Z,99519.35
2017-11-29T05:29:41.258Z,99518.00
2017-11-29T05:30:46.460Z,99512.30
2017-11-29T05:31:51.899Z,99513.81
2017-11-29T05:32:57.102Z,99521.45
2017-11-29T05:34:02.572Z,99517.93
2017-11-29T05:35:08.023Z,99515.19
2017-11-29T05:36:13.213Z,99508.41
2017-11-29T05:37:18.718Z,99513.53
2017-11-29T05:38:24.276Z,99503.98
2017-11-29T05:39:29.805Z,99497.95
2017-11-29T05:40:35.749Z,99504.78
2017-11-29T05:41:41.612Z,99496.59
2017-11-29T05:42:47.090Z,99502.12
2017-11-29T05:43:52.359Z,99502.19
2017-11-29T05:44:57.835Z,99499.61
2017-11-29T05:46:03.106Z,99500.00
2017-11-29T05:47:08.525Z,99501.22
2017-11-29T05:48:14.252Z,99495.25
2017-11-29T05:49:20.065Z,99494.89
2017-11-29T05:50:32.604Z,99492.85
2017-11-29T05:51:37.846Z,99497.18
2017-11-29T05:52:43.083Z,99500.80
2017-11-29T05:53:48.561Z,99496.61
2017-11-29T05:54:53.790Z,99502.64
2017-11-29T05:55:59.674Z,99507.30
2017-11-29T05:57:05.484Z,99506.92
2017-11-29T05:58:10.951Z,99504.42
2017-11-29T05:59:17.141Z,99506.56
2017-11-29T06:00:22.553Z,99500.48
2017-11-29T06:01:27.825Z,99508.61
2017-11-29T06:02:33.576Z,99511.11
2017-11-29T06:03:38.999Z,99510.19
2017-11-29T06:04:44.601Z,99512.27
2017-11-29T06:05:49.843Z,99509.64
2017-11-29T06:06:55.052Z,99506.19
2017-11-29T06:08:00.502Z,99506.68
2017-11-29T06:09:06.346Z,99509.63
2017-11-29T06:10:12.144Z,99513.51
2017-11-29T06:11:17.696Z,99519.49
2017-11-29T06:12:23.514Z,99522.93
2017-11-29T06:13:28.968Z,99520.70
2017-11-29T06:14:34.460Z,99524.10
2017-11-29T06:15:39.863Z,99520.84
2017-11-29T06:16:45.590Z,99525.13
2017-11-29T06:17:50.802Z,99527.65
2017-11-29T06:18:56.618Z,99522.67
2017-11-29T06:20:02.018Z,99528.63
2017-11-29T06:21:07.427Z,99526.98
2017-11-29T06:22:12.909Z,99520.52
2017-11-29T06:23:19.078Z,99519.23
2017-11-29T06:24:24.813Z,99525.70
2017-11-29T06:25:30.975Z,99530.92
2017-11-29T06:26:36.568Z,99528.75
2017-11-29T06:27:42.045Z,99525.44
2017-11-29T06:28:47.595Z,99527.33
2017-11-29T06:29:53.395Z,99536.80
2017-11-29T06:30:59.330Z,99542.39
2017-11-29T06:32:05.527Z,99544.42
2017-11-29T06:33:11.624Z,99546.13
2017-11-29T06:34:17.614Z,99544.21
2017-11-29T06:35:23.762Z,99545.28
2017-11-29T06:36:29.916Z,99548.25
2017-11-29T06:37:35.851Z,99541.21
2017-11-29T06:38:42.016Z,99549.05
2017-11-29T06:39:48.167Z,99546.84
2017-11-29T06:40:54.321Z,99546.30
2017-11-29T06:42:00.773Z,99542.69
2017-11-29T06:43:06.894Z,99536.67
2017-11-29T06:44:13.046Z,99545.33
2017-11-29T06:45:19.313Z,99541.47
2017-11-29T06:46:25.410Z,99545.72
2017-11-29T06:47:31.556Z,99541.89
2017-11-29T06:48:37.733Z,99545.98
2017-11-29T06:49:43.982Z,99548.23
2017-11-29T06:50:50.076Z,99542.06
2017-11-29T06:51:56.589Z,99543.88
2017-11-29T06:53:02.950Z,99549.00
2017-11-29T06:54:11.028Z,99544.22
2017-11-29T06:55:19.398Z,99541.63
2017-11-29T06:56:25.584Z,99541.58
2017-11-29T06:57:31.681Z,99547.16
2017-11-29T06:58:37.804Z,99545.52
2017-11-29T06:59:43.565Z,99553.79
2017-11-29T07:00:49.853Z,99547.50
2017-11-29T07:01:55.986Z,99548.40
2017-11-29T07:03:02.959Z,99549.26
2017-11-29T07:04:09.805Z,99549.97
2017-11-29T07:05:15.944Z,99554.69
2017-11-29T07:06:22.161Z,99549.44
2017-11-29T07:07:28.305Z,99557.16
2017-11-29T07:08:34.480Z,99556.00
2017-11-29T07:09:40.638Z,99555.94
2017-11-29T07:10:46.774Z,99549.48
2017-11-29T07:11:52.907Z,99548.58
2017-11-29T07:12:59.017Z,99549.53
2017-11-29T07:14:05.207Z,99552.88
2017-11-29T07:15:11.385Z,99549.81
2017-11-29T07:16:17.489Z,99547.98
2017-11-29T07:17:23.578Z,99551.85
2017-11-29T07:18:29.698Z,99550.66
2017-11-29T07:19:35.856Z,99557.55
2017-11-29T07:20:42.016Z,99561.05
2017-11-29T07:21:48.105Z,99563.25
2017-11-29T07:22:54.298Z,99565.82
2017-11-29T07:24:00.411Z,99561.52
2017-11-29T07:25:06.360Z,99563.67
2017-11-29T07:26:12.502Z,99563.72
2017-11-29T07:27:18.659Z,99565.50
2017-11-29T07:28:24.593Z,99560.34
2017-11-29T07:29:30.757Z,99567.55
2017-11-29T07:30:36.499Z,99569.64
2017-11-29T07:31:42.698Z,99564.97
2017-11-29T07:32:48.875Z,99567.48
2017-11-29T07:33:54.995Z,99567.88
2017-11-29T07:35:01.160Z,99569.00
2017-11-29T07:36:07.110Z,99568.52
2017-11-29T07:37:13.101Z,99567.28
2017-11-29T07:38:19.233Z,99573.99
2017-11-29T07:39:25.414Z,99567.28
2017-11-29T07:40:31.194Z,99568.13
2017-11-29T07:41:37.359Z,99571.25
2017-11-29T07:42:43.515Z,99569.06
2017-11-29T07:43:49.690Z,99574.21
2017-11-29T07:44:55.839Z,99572.43
2017-11-29T07:46:02.020Z,99573.56
2017-11-29T07:47:08.234Z,99571.95
2017-11-29T07:48:14.317Z,99576.68
2017-11-29T07:49:26.366Z,99575.55
2017-11-29T07:50:32.494Z,99576.17
2017-11-29T07:51:38.587Z,99578.88
2017-11-29T07:52:44.772Z,99575.16
2017-11-29T07:53:50.887Z,99576.45
2017-11-29T07:54:57.434Z,99584.95
2017-11-29T07:56:03.605Z,99582.98
2017-11-29T07:57:09.764Z,99584.91
2017-11-29T07:58:15.903Z,99579.18
2017-11-29T07:59:22.111Z,99574.77
2017-11-29T08:00:28.277Z,99580.12
2017-11-29T08:01:34.061Z,99581.89
2017-11-29T08:02:40.049Z,99580.85
2017-11-29T08:03:46.138Z,99584.16
2017-11-29T08:04:52.074Z,99588.41
2017-11-29T08:05:58.249Z,99581.02
2017-11-29T08:07:04.382Z,99580.59
2017-11-29T08:08:10.532Z,99580.52
2017-11-29T08:09:16.718Z,99580.77
2017-11-29T08:10:22.845Z,99581.63
2017-11-29T08:11:29.065Z,99586.66
2017-11-29T08:12:35.165Z,99582.63
2017-11-29T08:13:41.308Z,99586.31
2017-11-29T08:14:47.509Z,99578.59
2017-11-29T08:15:53.514Z,99591.09
2017-11-29T08:16:59.665Z,99581.12
2017-11-29T08:18:05.624Z,99590.10
2017-11-29T08:19:11.793Z,99584.80
2017-11-29T08:20:17.763Z,99579.58
2017-11-29T08:21:23.954Z,99580.73
2017-11-29T08:22:29.963Z,99579.86
2017-11-29T08:23:35.897Z,99582.74
2017-11-29T08:24:42.030Z,99582.30
2017-11-29T08:25:47.845Z,99583.05
2017-11-29T08:26:53.630Z,99578.12
2017-11-29T08:27:59.715Z,99582.80
2017-11-29T08:29:05.506Z,99591.28
2017-11-29T08:30:10.992Z,99583.52
2017-11-29T08:31:16.968Z,99588.27
2017-11-29T08:32:22.726Z,99588.89
2017-11-29T08:33:28.815Z,99583.58
2017-11-29T08:34:34.932Z,99591.64
2017-11-29T08:35:40.530Z,99587.39
2017-11-29T08:36:46.267Z,99588.47
2017-11-29T08:37:52.057Z,99595.00
2017-11-29T08:38:57.656Z,99598.33
2017-11-29T08:40:03.135Z,99598.59
2017-11-29T08:41:08.939Z,99596.67
2017-11-29T08:42:14.380Z,99599.70
2017-11-29T08:43:19.921Z,99597.95
2017-11-29T08:44:25.572Z,99608.16
2017-11-29T08:45:31.799Z,99601.77
2017-11-29T08:46:37.595Z,99604.36
2017-11-29T08:47:43.047Z,99606.09
2017-11-29T08:48:48.470Z,99610.04
2017-11-29T08:49:53.973Z,99607.43
2017-11-29T08:50:59.421Z,99609.59
2017-11-29T08:52:04.670Z,99611.89
2017-11-29T08:53:10.103Z,99612.37
2017-11-29T08:54:15.600Z,99612.25
2017-11-29T08:55:21.428Z,99612.47
2017-11-29T08:56:27.193Z,99615.33
2017-11-29T08:57:32.998Z,99613.17
2017-11-29T08:58:38.490Z,99622.58
2017-11-29T08:59:43.944Z,99614.84
2017-11-29T09:00:49.354Z,99611.45
2017-11-29T09:01:54.768Z,99609.31
2017-11-29T09:03:00.883Z,99608.52
2017-11-29T09:04:06.172Z,99613.20
2017-11-29T09:05:11.687Z,99607.38
2017-11-29T09:06:19.259Z,99614.77
2017-11-29T09:07:24.682Z,99611.19
2017-11-29T09:08:29.918Z,99615.06
2017-11-29T09:09:35.423Z,99614.14
2017-11-29T09:10:42.730Z,99612.17
2017-11-29T09:11:50.190Z,99618.75
2017-11-29T09:12:55.643Z,99613.63
2017-11-29T09:14:00.875Z,99611.64
2017-11-29T09:15:06.183Z,99609.84
2017-11-29T09:16:11.469Z,99611.69
2017-11-29T09:17:16.884Z,99606.83
2017-11-29T09:18:22.110Z,99614.00
2017-11-29T09:19:27.318Z,99612.50
2017-11-29T09:20:33.133Z,99609.16
2017-11-29T09:21:38.376Z,99608.46
2017-11-29T09:22:43.804Z,99613.00
2017-11-29T09:23:49.034Z,99612.34
2017-11-29T09:24:54.512Z,99611.98
2017-11-29T09:25:59.734Z,99610.53
2017-11-29T09:27:06.095Z,99609.23
2017-11-29T09:28:11.538Z,99607.92
2017-11-29T09:29:16.993Z,99609.11
2017-11-29T09:30:22.574Z,99605.98
2017-11-29T09:31:28.216Z,99609.02
2017-11-29T09:32:33.250Z,99611.60
2017-11-29T09:33:38.804Z,99603.19
2017-11-29T09:34:44.392Z,99602.80
2017-11-29T09:35:50.043Z,99607.05
2017-11-29T09:36:55.330Z,99606.45
2017-11-29T09:38:00.581Z,99607.85
2017-11-29T09:39:05.878Z,99606.88
2017-11-29T09:40:13.046Z,99608.81
2017-11-29T09:41:18.437Z,99607.93
2017-11-29T09:42:23.668Z,99604.83
2017-11-29T09:43:29.348Z,99603.91
2017-11-29T09:44:34.931Z,99600.09
2017-11-29T09:45:40.424Z,99598.98
2017-11-29T09:46:45.707Z,99600.13
2017-11-29T09:47:51.004Z,99595.89
2017-11-29T09:48:57.450Z,99599.00
2017-11-29T09:50:02.501Z,99597.28
2017-11-29T09:51:07.755Z,99595.63
2017-11-29T09:52:13.471Z,99596.58
2017-11-29T09:53:18.693Z,99594.13
2017-11-29T09:54:24.135Z,99587.77
2017-11-29T09:55:29.358Z,99587.95
2017-11-29T09:56:38.381Z,99587.84
2017-11-29T09:57:43.761Z,99588.09
2017-11-29T09:58:48.984Z,99590.88
2017-11-29T09:59:54.279Z,99588.21
2017-11-29T10:00:59.538Z,99594.19
2017-11-29T10:02:07.129Z,99587.17
2017-11-29T10:03:12.403Z,99588.38
2017-11-29T10:04:17.691Z,99587.52
2017-11-29T10:05:22.910Z,99585.94
2017-11-29T10:06:28.215Z,99583.02
2017-11-29T10:07:33.477Z,99581.47
2017-11-29T10:08:38.736Z,99577.28
2017-11-29T10:09:43.982Z,99584.91
2017-11-29T10:10:49.186Z,99580.63
2017-11-29T10:11:54.478Z,99580.16
2017-11-29T10:12:59.758Z,99574.89
2017-11-29T10:14:04.974Z,99573.34
2017-11-29T10:15:10.478Z,99573.97
2017-11-29T10:16:16.020Z,99577.33
2017-11-29T10:17:21.212Z,99576.87
2017-11-29T10:18:27.530Z,99577.66
2017-11-29T10:19:32.955Z,99577.84
2017-11-29T10:20:38.184Z,99571.80
2017-11-29T10:21:43.663Z,99573.27
2017-11-29T10:22:48.926Z,99577.13
2017-11-29T10:23:54.305Z,99583.55
2017-11-29T10:24:59.515Z,99581.31
2017-11-29T10:26:04.925Z,99577.06
2017-11-29T10:27:10.392Z,99583.05
2017-11-29T10:28:15.929Z,99577.69
2017-11-29T10:29:21.149Z,99576.04
2017-11-29T10:30:26.380Z,99583.05
2017-11-29T10:31:31.802Z,99578.86
2017-11-29T10:32:37.019Z,99577.25
2017-11-29T10:33:42.288Z,99581.01
2017-11-29T10:34:47.431Z,99575.67
2017-11-29T10:35:52.644Z,99573.54
2017-11-29T10:36:57.946Z,99584.01
2017-11-29T10:38:03.239Z,99576.23
2017-11-29T10:39:08.501Z,99579.05
2017-11-29T10:40:19.153Z,99581.75
2017-11-29T10:41:26.466Z,99577.38
2017-11-29T10:42:35.640Z,99577.39
2017-11-29T10:43:41.085Z,99572.59
2017-11-29T10:44:46.566Z,99578.69
2017-11-29T10:45:51.839Z,99569.20
2017-11-29T10:46:57.141Z,99572.33
2017-11-29T10:48:03.267Z,99574.10
2017-11-29T10:49:08.693Z,99576.89
2017-11-29T10:50:13.943Z,99571.42
2017-11-29T10:51:19.214Z,99574.27
2017-11-29T10:52:24.883Z,99573.16
2017-11-29T10:53:30.123Z,99571.19
2017-11-29T10:54:35.390Z,99570.95
2017-11-29T10:55:40.793Z,99566.87
2017-11-29T10:56:46.426Z,99565.27
2017-11-29T10:57:51.780Z,99569.34
2017-11-29T10:58:56.776Z,99566.23
2017-11-29T11:00:02.014Z,99567.00
2017-11-29T11:01:07.285Z,99568.30
2017-11-29T11:02:12.533Z,99566.08
2017-11-29T11:03:17.815Z,99563.20
2017-11-29T11:04:23.084Z,99569.60
2017-11-29T11:05:28.675Z,99570.58
2017-11-29T11:06:41.556Z,99568.47
2017-11-29T11:07:46.836Z,99573.17
2017-11-29T11:08:52.068Z,99568.71
2017-11-29T11:10:01.291Z,99569.05
2017-11-29T11:11:06.530Z,99577.12
2017-11-29T11:12:12.494Z,99565.98
2017-11-29T11:13:17.964Z,99567.31
2017-11-29T11:14:23.276Z,99568.16
2017-11-29T11:15:28.491Z,99566.98
2017-11-29T11:16:33.943Z,99569.97
2017-11-29T11:17:39.237Z,99566.09
2017-11-29T11:18:44.939Z,99569.03
2017-11-29T11:19:56.945Z,99569.60
2017-11-29T11:21:02.393Z,99569.33
2017-11-29T11:22:07.601Z,99567.55
2017-11-29T11:23:12.848Z,99568.25
2017-11-29T11:24:18.648Z,99569.59
2017-11-29T11:25:23.678Z,99569.88
2017-11-29T11:26:29.164Z,99567.30
2017-11-29T11:27:34.230Z,99567.41
2017-11-29T11:28:39.492Z,99568.71
2017-11-29T11:29:44.630Z,99570.55
2017-11-29T11:30:49.865Z,99565.18
2017-11-29T11:31:55.316Z,99561.94
2017-11-29T11:33:00.520Z,99560.52
2017-11-29T11:34:05.633Z,99557.53
2017-11-29T11:35:10.853Z,99561.30
2017-11-29T11:36:16.261Z,99567.02
2017-11-29T11:37:21.517Z,99564.59
2017-11-29T11:38:26.940Z,99563.39
2017-11-29T11:39:32.151Z,99561.09
2017-11-29T11:40:37.545Z,99561.94
2017-11-29T11:41:42.627Z,99552.09
2017-11-29T11:42:48.111Z,99554.67
2017-11-29T11:43:53.302Z,99557.17
2017-11-29T11:44:58.798Z,99550.45
2017-11-29T11:46:07.649Z,99551.09
2017-11-29T11:47:12.948Z,99551.97
2017-11-29T11:48:18.462Z,99553.36
2017-11-29T11:49:23.998Z,99556.51
2017-11-29T11:50:29.304Z,99552.50
2017-11-29T11:51:34.513Z,99555.27
2017-11-29T11:52:39.957Z,99553.75
2017-11-29T11:53:45.174Z,99555.25
2017-11-29T11:54:50.653Z,99554.67
2017-11-29T11:55:56.161Z,99550.42
2017-11-29T11:57:01.176Z,99547.88
2017-11-29T11:58:06.425Z,99551.13
2017-11-29T11:59:11.864Z,99552.07
2017-11-29T12:00:17.136Z,99544.62
2017-11-29T12:01:23.063Z,99548.02
2017-11-29T12:02:28.836Z,99545.09
2017-11-29T12:03:34.225Z,99549.83
2017-11-29T12:04:41.231Z,99547.70
2017-11-29T12:05:46.668Z,99549.71
2017-11-29T12:06:52.420Z,99549.30
2017-11-29T12:07:57.821Z,99546.89
2017-11-29T12:09:03.381Z,99549.65
2017-11-29T12:10:08.845Z,99544.76
2017-11-29T12:11:14.292Z,99545.59
2017-11-29T12:12:20.112Z,99546.27
2017-11-29T12:13:25.565Z,99547.45
2017-11-29T12:14:30.966Z,99547.20
2017-11-29T12:15:36.383Z,99540.79
2017-11-29T12:16:41.838Z,99547.14
2017-11-29T12:17:47.293Z,99542.52
2017-11-29T12:18:52.673Z,99545.20
2017-11-29T12:19:58.054Z,99542.46
2017-11-29T12:21:04.332Z,99549.16
2017-11-29T12:22:09.759Z,99542.55
2017-11-29T12:23:15.245Z,99537.87
2017-11-29T12:24:20.681Z,99542.95
2017-11-29T12:25:26.076Z,99543.80
2017-11-29T12:26:31.460Z,99549.01
2017-11-29T12:27:36.869Z,99541.93
2017-11-29T12:28:42.339Z,99536.55
2017-11-29T12:29:47.708Z,99545.99
2017-11-29T12:30:52.889Z,99541.40
2017-11-29T12:31:58.321Z,99538.27
2017-11-29T12:33:04.126Z,99546.94
2017-11-29T12:34:09.296Z,99543.91
2017-11-29T12:35:15.084Z,99547.70
2017-11-29T12:36:20.515Z,99552.67
2017-11-29T12:37:25.948Z,99539.50
2017-11-29T12:38:31.360Z,99540.38
2017-11-29T12:39:36.768Z,99538.98
2017-11-29T12:40:42.228Z,99544.05
2017-11-29T12:41:47.622Z,99538.38
2017-11-29T12:42:53.068Z,99540.45
2017-11-29T12:43:58.649Z,99536.55
2017-11-29T12:45:04.357Z,99541.71
2017-11-29T12:46:09.548Z,99534.38
2017-11-29T12:47:14.996Z,99537.64
2017-11-29T12:48:32.233Z,99536.56
2017-11-29T12:49:49.021Z,99540.03
2017-11-29T12:51:05.930Z,99536.05
2017-11-29T12:52:11.196Z,99532.75
2017-11-29T12:53:16.936Z,99536.00
2017-11-29T12:54:22.333Z,99534.34
2017-11-29T12:55:28.108Z,99536.98
2017-11-29T12:56:36.919Z,99533.20
2017-11-29T12:57:42.337Z,99534.55
2017-11-29T12:58:48.087Z,99527.94
2017-11-29T12:59:53.525Z,99528.15
2017-11-29T13:00:59.501Z,99530.11
2017-11-29T13:02:04.815Z,99527.36
2017-11-29T13:03:10.174Z,99529.67
2017-11-29T13:04:15.375Z,99526.49
2017-11-29T13:05:24.102Z,99527.34